sensor_id;sensor_type;location;lat;lon;timestamp;pressure;altitude;pressure_sealevel;temperature;humidity
27334;BME280;14817;57.104;-2.094;2023-05-17T00:02:20;101679.31;;;7.98;100.00
27334;BME280;14817;57.104;-2.094;2023-05-17T00:04:47;101677.41;;;8.13;100.00
27334;BME280;14817;57.104;-2.094;2023-05-17T00:07:14;101678.34;;;8.12;100.00
27334;BME280;14817;57.104;-2.094;2023-05-17T00:09:41;101683.91;;;8.09;100.00
27334;BME280;14817;57.104;-2.094;2023-05-17T00:12:08;101682.31;;;8.07;100.00
27334;BME280;14817;57.104;-2.094;2023-05-17T00:14:35;101679.84;;;8.04;100.00
27334;BME280;14817;57.104;-2.094;2023-05-17T00:17:02;101676.00;;;8.08;100.00
27334;BME280;14817;57.104;-2.094;2023-05-17T00:19:29;101675.69;;;8.00;100.00
27334;BME280;14817;57.104;-2.094;2023-05-17T00:21:56;101674.94;;;7.97;100.00
27334;BME280;14817;57.104;-2.094;2023-05-17T00:24:23;101678.56;;;7.84;100.00
27334;BME280;14817;57.104;-2.094;2023-05-17T00:26:50;101677.41;;;7.75;100.00
27334;BME280;14817;57.104;-2.094;2023-05-17T00:29:16;101671.00;;;7.90;100.00
27334;BME280;14817;57.104;-2.094;2023-05-17T00:31:43;101675.16;;;7.69;100.00
27334;BME280;14817;57.104;-2.094;2023-05-17T00:34:10;101679.31;;;7.60;100.00
27334;BME280;14817;57.104;-2.094;2023-05-17T00:36:37;101677.50;;;7.73;100.00
27334;BME280;14817;57.104;-2.094;2023-05-17T00:39:06;101676.41;;;7.76;100.00
27334;BME280;14817;57.104;-2.094;2023-05-17T00:41:33;101674.59;;;7.64;100.00
27334;BME280;14817;57.104;-2.094;2023-05-17T00:43:59;101679.06;;;7.63;100.00
27334;BME280;14817;57.104;-2.094;2023-05-17T00:46:26;101675.09;;;7.43;100.00
27334;BME280;14817;57.104;-2.094;2023-05-17T00:48:54;101679.69;;;7.41;100.00
27334;BME280;14817;57.104;-2.094;2023-05-17T00:51:21;101682.16;;;7.57;100.00
27334;BME280;14817;57.104;-2.094;2023-05-17T00:53:48;101681.66;;;7.65;100.00
27334;BME280;14817;57.104;-2.094;2023-05-17T00:56:16;101681.66;;;7.65;100.00
27334;BME280;14817;57.104;-2.094;2023-05-17T00:58:43;101686.97;;;7.65;100.00
27334;BME280;14817;57.104;-2.094;2023-05-17T01:01:10;101682.47;;;7.52;100.00
27334;BME280;14817;57.104;-2.094;2023-05-17T01:03:37;101685.22;;;7.51;100.00
27334;BME280;14817;57.104;-2.094;2023-05-17T01:06:05;101676.72;;;7.59;100.00
27334;BME280;14817;57.104;-2.094;2023-05-17T01:08:33;101684.09;;;7.68;100.00
27334;BME280;14817;57.104;-2.094;2023-05-17T01:16:26;101684.72;;;7.59;100.00
27334;BME280;14817;57.104;-2.094;2023-05-17T01:19:27;101682.72;;;7.62;100.00
27334;BME280;14817;57.104;-2.094;2023-05-17T01:25:03;101687.16;;;7.49;100.00
27334;BME280;14817;57.104;-2.094;2023-05-17T01:27:35;101691.22;;;7.54;100.00
27334;BME280;14817;57.104;-2.094;2023-05-17T01:30:03;101688.91;;;7.63;100.00
27334;BME280;14817;57.104;-2.094;2023-05-17T01:32:32;101686.75;;;7.68;100.00
27334;BME280;14817;57.104;-2.094;2023-05-17T01:34:59;101684.00;;;7.69;100.00
27334;BME280;14817;57.104;-2.094;2023-05-17T01:37:26;101675.44;;;7.51;100.00
27334;BME280;14817;57.104;-2.094;2023-05-17T01:39:52;101676.47;;;7.49;100.00
27334;BME280;14817;57.104;-2.094;2023-05-17T01:42:28;101668.28;;;7.39;100.00
27334;BME280;14817;57.104;-2.094;2023-05-17T01:45:22;101670.28;;;7.35;100.00
27334;BME280;14817;57.104;-2.094;2023-05-17T01:48:14;101668.41;;;7.50;100.00
27334;BME280;14817;57.104;-2.094;2023-05-17T01:50:47;101675.69;;;7.74;100.00
27334;BME280;14817;57.104;-2.094;2023-05-17T01:53:24;101679.31;;;7.60;100.00
27334;BME280;14817;57.104;-2.094;2023-05-17T01:56:03;101676.66;;;7.73;100.00
27334;BME280;14817;57.104;-2.094;2023-05-17T01:58:44;101679.75;;;7.80;100.00
27334;BME280;14817;57.104;-2.094;2023-05-17T02:01:13;101676.31;;;7.65;100.00
27334;BME280;14817;57.104;-2.094;2023-05-17T02:03:41;101671.50;;;7.70;100.00
27334;BME280;14817;57.104;-2.094;2023-05-17T02:06:08;101672.50;;;7.82;100.00
27334;BME280;14817;57.104;-2.094;2023-05-17T02:08:35;101671.41;;;7.97;100.00
27334;BME280;14817;57.104;-2.094;2023-05-17T02:11:02;101671.84;;;7.91;100.00
27334;BME280;14817;57.104;-2.094;2023-05-17T02:13:29;101675.81;;;7.72;100.00
27334;BME280;14817;57.104;-2.094;2023-05-17T02:16:02;101677.81;;;7.94;100.00
27334;BME280;14817;57.104;-2.094;2023-05-17T02:18:31;101676.09;;;7.93;100.00
27334;BME280;14817;57.104;-2.094;2023-05-17T02:21:01;101682.59;;;8.02;100.00
27334;BME280;14817;57.104;-2.094;2023-05-17T02:23:28;101682.75;;;8.01;100.00
27334;BME280;14817;57.104;-2.094;2023-05-17T02:25:54;101681.25;;;7.96;100.00
27334;BME280;14817;57.104;-2.094;2023-05-17T02:28:21;101677.41;;;8.13;100.00
27334;BME280;14817;57.104;-2.094;2023-05-17T02:30:48;101680.25;;;8.23;100.00
27334;BME280;14817;57.104;-2.094;2023-05-17T02:33:15;101665.63;;;8.29;100.00
27334;BME280;14817;57.104;-2.094;2023-05-17T02:35:42;101673.53;;;8.30;100.00
27334;BME280;14817;57.104;-2.094;2023-05-17T02:38:09;101669.56;;;8.23;100.00
27334;BME280;14817;57.104;-2.094;2023-05-17T02:40:36;101666.56;;;8.28;100.00
27334;BME280;14817;57.104;-2.094;2023-05-17T02:43:02;101673.53;;;8.30;100.00
27334;BME280;14817;57.104;-2.094;2023-05-17T02:45:33;101674.81;;;8.12;100.00
27334;BME280;14817;57.104;-2.094;2023-05-17T02:48:00;101671.41;;;8.23;100.00
27334;BME280;14817;57.104;-2.094;2023-05-17T02:50:27;101669.44;;;8.37;100.00
27334;BME280;14817;57.104;-2.094;2023-05-17T02:52:56;101666.38;;;8.44;100.00
27334;BME280;14817;57.104;-2.094;2023-05-17T02:55:23;101660.06;;;8.45;100.00
27334;BME280;14817;57.104;-2.094;2023-05-17T02:57:50;101666.59;;;8.41;100.00
27334;BME280;14817;57.104;-2.094;2023-05-17T03:00:17;101661.97;;;8.30;100.00
27334;BME280;14817;57.104;-2.094;2023-05-17T03:02:44;101662.22;;;8.27;100.00
27334;BME280;14817;57.104;-2.094;2023-05-17T03:05:11;101657.84;;;8.26;100.00
27334;BME280;14817;57.104;-2.094;2023-05-17T03:07:44;101653.34;;;8.26;100.00
27334;BME280;14817;57.104;-2.094;2023-05-17T03:10:11;101653.34;;;8.26;100.00
27334;BME280;14817;57.104;-2.094;2023-05-17T03:12:42;101658.06;;;8.23;100.00
27334;BME280;14817;57.104;-2.094;2023-05-17T03:15:09;101656.13;;;8.25;100.00
27334;BME280;14817;57.104;-2.094;2023-05-17T03:17:36;101650.25;;;8.32;100.00
27334;BME280;14817;57.104;-2.094;2023-05-17T03:20:04;101653.22;;;8.28;100.00
27334;BME280;14817;57.104;-2.094;2023-05-17T03:22:34;101645.13;;;8.29;100.00
27334;BME280;14817;57.104;-2.094;2023-05-17T03:25:02;101651.44;;;8.28;100.00
27334;BME280;14817;57.104;-2.094;2023-05-17T03:27:31;101657.63;;;8.29;100.00
27334;BME280;14817;57.104;-2.094;2023-05-17T03:29:59;101651.94;;;8.33;100.00
27334;BME280;14817;57.104;-2.094;2023-05-17T03:32:27;101644.78;;;8.34;100.00
27334;BME280;14817;57.104;-2.094;2023-05-17T03:34:54;101642.34;;;8.31;100.00
27334;BME280;14817;57.104;-2.094;2023-05-17T03:37:24;101647.59;;;8.32;100.00
27334;BME280;14817;57.104;-2.094;2023-05-17T03:39:51;101644.34;;;8.40;100.00
27334;BME280;14817;57.104;-2.094;2023-05-17T03:42:18;101648.09;;;8.37;100.00
27334;BME280;14817;57.104;-2.094;2023-05-17T03:44:45;101648.44;;;8.33;100.00
27334;BME280;14817;57.104;-2.094;2023-05-17T03:47:13;101648.00;;;8.39;100.00
27334;BME280;14817;57.104;-2.094;2023-05-17T03:49:40;101641.50;;;8.30;100.00
27334;BME280;14817;57.104;-2.094;2023-05-17T03:52:07;101640.09;;;8.37;100.00
27334;BME280;14817;57.104;-2.094;2023-05-17T03:54:34;101634.34;;;8.31;100.00
27334;BME280;14817;57.104;-2.094;2023-05-17T03:57:01;101639.16;;;8.38;100.00
27334;BME280;14817;57.104;-2.094;2023-05-17T03:59:29;101629.75;;;8.33;100.00
27334;BME280;14817;57.104;-2.094;2023-05-17T04:01:56;101632.81;;;8.39;100.00
27334;BME280;14817;57.104;-2.094;2023-05-17T04:04:23;101630.16;;;8.39;100.00
27334;BME280;14817;57.104;-2.094;2023-05-17T04:06:50;101630.16;;;8.39;100.00
27334;BME280;14817;57.104;-2.094;2023-05-17T04:09:17;101631.69;;;8.44;100.00
27334;BME280;14817;57.104;-2.094;2023-05-17T04:11:45;101628.56;;;8.50;100.00
27334;BME280;14817;57.104;-2.094;2023-05-17T04:14:12;101629.22;;;8.41;100.00
27334;BME280;14817;57.104;-2.094;2023-05-17T04:16:39;101624.16;;;8.49;100.00
27334;BME280;14817;57.104;-2.094;2023-05-17T04:19:06;101628.66;;;8.48;100.00
27334;BME280;14817;57.104;-2.094;2023-05-17T04:21:33;101621.00;;;8.44;100.00
27334;BME280;14817;57.104;-2.094;2023-05-17T04:24:00;101622.47;;;8.48;100.00
27334;BME280;14817;57.104;-2.094;2023-05-17T04:26:28;101616.31;;;8.47;100.00
27334;BME280;14817;57.104;-2.094;2023-05-17T04:28:54;101614.81;;;8.43;100.00
27334;BME280;14817;57.104;-2.094;2023-05-17T04:31:22;101616.06;;;8.50;100.00
27334;BME280;14817;57.104;-2.094;2023-05-17T04:33:49;101606.13;;;8.52;100.00
27334;BME280;14817;57.104;-2.094;2023-05-17T04:36:17;101605.34;;;8.63;100.00
27334;BME280;14817;57.104;-2.094;2023-05-17T04:38:44;101610.03;;;8.59;100.00
27334;BME280;14817;57.104;-2.094;2023-05-17T04:41:15;101609.38;;;8.69;100.00
27334;BME280;14817;57.104;-2.094;2023-05-17T04:43:43;101608.06;;;8.74;100.00
27334;BME280;14817;57.104;-2.094;2023-05-17T04:46:19;101607.22;;;8.74;100.00
27334;BME280;14817;57.104;-2.094;2023-05-17T04:48:47;101612.91;;;8.69;100.00
27334;BME280;14817;57.104;-2.094;2023-05-17T04:51:14;101615.31;;;8.72;100.00
27334;BME280;14817;57.104;-2.094;2023-05-17T04:53:41;101618.53;;;8.77;100.00
27334;BME280;14817;57.104;-2.094;2023-05-17T04:56:12;101617.16;;;8.72;100.00
27334;BME280;14817;57.104;-2.094;2023-05-17T04:58:39;101614.66;;;8.82;100.00
27334;BME280;14817;57.104;-2.094;2023-05-17T05:01:06;101608.44;;;8.81;100.00
27334;BME280;14817;57.104;-2.094;2023-05-17T05:03:33;101618.06;;;8.84;100.00
27334;BME280;14817;57.104;-2.094;2023-05-17T05:06:01;101621.50;;;8.86;100.00
27334;BME280;14817;57.104;-2.094;2023-05-17T05:08:32;101622.72;;;8.93;100.00
27334;BME280;14817;57.104;-2.094;2023-05-17T05:10:59;101620.75;;;8.84;100.00
27334;BME280;14817;57.104;-2.094;2023-05-17T05:13:27;101617.47;;;8.91;100.00
27334;BME280;14817;57.104;-2.094;2023-05-17T05:15:54;101612.00;;;8.82;100.00
27334;BME280;14817;57.104;-2.094;2023-05-17T05:18:22;101617.34;;;8.82;100.00
27334;BME280;14817;57.104;-2.094;2023-05-17T05:20:50;101626.13;;;8.95;100.00
27334;BME280;14817;57.104;-2.094;2023-05-17T05:23:17;101624.97;;;9.10;100.00
27334;BME280;14817;57.104;-2.094;2023-05-17T05:25:47;101628.78;;;9.19;100.00
27334;BME280;14817;57.104;-2.094;2023-05-17T05:28:14;101640.19;;;9.21;100.00
27334;BME280;14817;57.104;-2.094;2023-05-17T05:30:41;101644.91;;;9.42;100.00
27334;BME280;14817;57.104;-2.094;2023-05-17T05:33:10;101636.22;;;9.27;100.00
27334;BME280;14817;57.104;-2.094;2023-05-17T05:35:37;101640.56;;;9.16;100.00
27334;BME280;14817;57.104;-2.094;2023-05-17T05:38:04;101640.09;;;9.23;100.00
27334;BME280;14817;57.104;-2.094;2023-05-17T05:40:31;101638.00;;;9.15;100.00
27334;BME280;14817;57.104;-2.094;2023-05-17T05:42:58;101642.97;;;9.19;100.00
27334;BME280;14817;57.104;-2.094;2023-05-17T05:45:25;101649.47;;;9.28;100.00
27334;BME280;14817;57.104;-2.094;2023-05-17T05:47:55;101646.81;;;9.28;100.00
27334;BME280;14817;57.104;-2.094;2023-05-17T05:50:23;101653.88;;;9.40;100.00
27334;BME280;14817;57.104;-2.094;2023-05-17T05:52:53;101654.59;;;9.43;100.00
27334;BME280;14817;57.104;-2.094;2023-05-17T05:55:32;101650.38;;;9.51;100.00
27334;BME280;14817;57.104;-2.094;2023-05-17T05:57:59;101648.97;;;9.70;100.00
27334;BME280;14817;57.104;-2.094;2023-05-17T06:00:26;101643.75;;;9.79;100.00
27334;BME280;14817;57.104;-2.094;2023-05-17T06:02:53;101643.50;;;9.82;100.00
27334;BME280;14817;57.104;-2.094;2023-05-17T06:05:22;101649.22;;;10.00;100.00
27334;BME280;14817;57.104;-2.094;2023-05-17T06:07:49;101651.56;;;10.05;100.00
27334;BME280;14817;57.104;-2.094;2023-05-17T06:10:17;101653.16;;;10.08;100.00
27334;BME280;14817;57.104;-2.094;2023-05-17T06:12:44;101659.59;;;10.28;100.00
27334;BME280;14817;57.104;-2.094;2023-05-17T06:15:11;101657.53;;;10.20;100.00
27334;BME280;14817;57.104;-2.094;2023-05-17T06:17:37;101655.94;;;10.06;100.00
27334;BME280;14817;57.104;-2.094;2023-05-17T06:20:05;101667.25;;;10.21;100.00
27334;BME280;14817;57.104;-2.094;2023-05-17T06:22:32;101662.63;;;10.23;100.00
27334;BME280;14817;57.104;-2.094;2023-05-17T06:24:58;101661.41;;;10.05;100.00
27334;BME280;14817;57.104;-2.094;2023-05-17T06:27:26;101666.44;;;10.32;100.00
27334;BME280;14817;57.104;-2.094;2023-05-17T06:29:52;101665.59;;;10.31;100.00
27334;BME280;14817;57.104;-2.094;2023-05-17T06:32:19;101661.66;;;10.47;100.00
27334;BME280;14817;57.104;-2.094;2023-05-17T06:34:46;101664.63;;;10.44;100.00
27334;BME280;14817;57.104;-2.094;2023-05-17T06:37:13;101667.75;;;10.49;100.00
27334;BME280;14817;57.104;-2.094;2023-05-17T06:39:40;101670.09;;;10.42;100.00
27334;BME280;14817;57.104;-2.094;2023-05-17T06:42:12;101666.41;;;10.54;100.00
27334;BME280;14817;57.104;-2.094;2023-05-17T06:44:39;101662.13;;;10.52;100.00
27334;BME280;14817;57.104;-2.094;2023-05-17T06:47:06;101664.00;;;10.40;100.00
27334;BME280;14817;57.104;-2.094;2023-05-17T06:49:33;101655.81;;;10.53;100.00
27334;BME280;14817;57.104;-2.094;2023-05-17T06:52:00;101660.81;;;10.57;100.00
27334;BME280;14817;57.104;-2.094;2023-05-17T06:54:29;101656.78;;;10.63;100.00
27334;BME280;14817;57.104;-2.094;2023-05-17T06:57:01;101665.53;;;10.54;100.00
27334;BME280;14817;57.104;-2.094;2023-05-17T06:59:29;101667.34;;;10.65;100.00
27334;BME280;14817;57.104;-2.094;2023-05-17T07:01:55;101662.69;;;10.89;100.00
27334;BME280;14817;57.104;-2.094;2023-05-17T07:04:22;101664.88;;;10.95;100.00
27334;BME280;14817;57.104;-2.094;2023-05-17T07:06:49;101665.97;;;10.93;100.00
27334;BME280;14817;57.104;-2.094;2023-05-17T07:09:17;101665.81;;;10.94;100.00
27334;BME280;14817;57.104;-2.094;2023-05-17T07:11:44;101664.00;;;10.95;100.00
27334;BME280;14817;57.104;-2.094;2023-05-17T07:14:11;101658.69;;;11.16;100.00
27334;BME280;14817;57.104;-2.094;2023-05-17T07:16:38;101663.47;;;11.12;100.00
27334;BME280;14817;57.104;-2.094;2023-05-17T07:19:05;101645.97;;;11.29;100.00
27334;BME280;14817;57.104;-2.094;2023-05-17T07:21:32;101650.34;;;11.30;100.00
27334;BME280;14817;57.104;-2.094;2023-05-17T07:23:59;101649.56;;;11.39;100.00
27334;BME280;14817;57.104;-2.094;2023-05-17T07:26:26;101649.31;;;11.63;100.00
27334;BME280;14817;57.104;-2.094;2023-05-17T07:28:53;101648.09;;;11.77;100.00
27334;BME280;14817;57.104;-2.094;2023-05-17T07:31:20;101650.53;;;12.32;100.00
27334;BME280;14817;57.104;-2.094;2023-05-17T07:33:47;101643.63;;;13.28;100.00
27334;BME280;14817;57.104;-2.094;2023-05-17T07:36:15;101641.78;;;13.96;100.00
27334;BME280;14817;57.104;-2.094;2023-05-17T07:38:42;101648.63;;;14.27;100.00
27334;BME280;14817;57.104;-2.094;2023-05-17T07:41:09;101651.19;;;14.19;100.00
27334;BME280;14817;57.104;-2.094;2023-05-17T07:43:38;101654.06;;;14.08;100.00
27334;BME280;14817;57.104;-2.094;2023-05-17T07:46:05;101652.88;;;15.21;100.00
27334;BME280;14817;57.104;-2.094;2023-05-17T07:48:32;101659.19;;;15.30;100.00
27334;BME280;14817;57.104;-2.094;2023-05-17T07:50:59;101654.88;;;15.63;100.00
27334;BME280;14817;57.104;-2.094;2023-05-17T07:53:26;101658.53;;;15.98;100.00
27334;BME280;14817;57.104;-2.094;2023-05-17T07:55:52;101654.13;;;16.31;100.00
27334;BME280;14817;57.104;-2.094;2023-05-17T07:58:19;101654.84;;;16.84;100.00
27334;BME280;14817;57.104;-2.094;2023-05-17T08:00:46;101661.16;;;16.59;100.00
27334;BME280;14817;57.104;-2.094;2023-05-17T08:03:13;101650.78;;;16.88;100.00
27334;BME280;14817;57.104;-2.094;2023-05-17T08:05:42;101642.50;;;17.88;100.00
27334;BME280;14817;57.104;-2.094;2023-05-17T08:08:09;101652.84;;;17.60;100.00
27334;BME280;14817;57.104;-2.094;2023-05-17T08:10:36;101650.94;;;18.10;100.00
27334;BME280;14817;57.104;-2.094;2023-05-17T08:13:05;101644.84;;;18.00;100.00
27334;BME280;14817;57.104;-2.094;2023-05-17T08:15:31;101646.41;;;17.61;100.00
27334;BME280;14817;57.104;-2.094;2023-05-17T08:17:58;101646.44;;;18.33;100.00
27334;BME280;14817;57.104;-2.094;2023-05-17T08:20:29;101647.06;;;17.96;100.00
27334;BME280;14817;57.104;-2.094;2023-05-17T08:22:56;101644.94;;;18.23;100.00
27334;BME280;14817;57.104;-2.094;2023-05-17T08:25:22;101645.94;;;18.22;100.00
27334;BME280;14817;57.104;-2.094;2023-05-17T08:27:49;101643.78;;;18.17;100.00
27334;BME280;14817;57.104;-2.094;2023-05-17T08:30:17;101641.81;;;17.94;100.00
27334;BME280;14817;57.104;-2.094;2023-05-17T08:32:54;101641.28;;;18.47;100.00
27334;BME280;14817;57.104;-2.094;2023-05-17T08:35:22;101648.13;;;18.26;100.00
27334;BME280;14817;57.104;-2.094;2023-05-17T08:37:53;101646.06;;;18.36;100.00
27334;BME280;14817;57.104;-2.094;2023-05-17T08:40:20;101646.75;;;18.30;100.00
27334;BME280;14817;57.104;-2.094;2023-05-17T08:42:49;101647.00;;;18.52;100.00
27334;BME280;14817;57.104;-2.094;2023-05-17T08:45:17;101648.03;;;18.51;100.00
27334;BME280;14817;57.104;-2.094;2023-05-17T08:47:45;101657.41;;;18.40;100.00
27334;BME280;14817;57.104;-2.094;2023-05-17T08:50:12;101649.47;;;17.50;100.00
27334;BME280;14817;57.104;-2.094;2023-05-17T08:52:44;101654.69;;;18.48;100.00
27334;BME280;14817;57.104;-2.094;2023-05-17T08:55:11;101658.13;;;18.34;100.00
27334;BME280;14817;57.104;-2.094;2023-05-17T08:57:42;101655.72;;;18.39;100.00
27334;BME280;14817;57.104;-2.094;2023-05-17T09:00:10;101664.13;;;18.61;100.00
27334;BME280;14817;57.104;-2.094;2023-05-17T09:02:40;101648.22;;;18.49;100.00
27334;BME280;14817;57.104;-2.094;2023-05-17T09:05:08;101656.38;;;18.41;100.00
27334;BME280;14817;57.104;-2.094;2023-05-17T09:07:36;101655.78;;;18.23;100.00
27334;BME280;14817;57.104;-2.094;2023-05-17T09:10:03;101650.69;;;18.28;100.00
27334;BME280;14817;57.104;-2.094;2023-05-17T09:12:32;101656.00;;;18.52;100.00
27334;BME280;14817;57.104;-2.094;2023-05-17T09:17:40;101651.72;;;18.58;100.00
27334;BME280;14817;57.104;-2.094;2023-05-17T09:20:09;101648.91;;;18.43;100.00
27334;BME280;14817;57.104;-2.094;2023-05-17T09:22:36;101654.34;;;18.43;100.00
27334;BME280;14817;57.104;-2.094;2023-05-17T09:25:04;101646.88;;;18.06;100.00
27334;BME280;14817;57.104;-2.094;2023-05-17T09:27:31;101642.97;;;18.08;100.00
27334;BME280;14817;57.104;-2.094;2023-05-17T09:29:57;101649.41;;;18.47;100.00
27334;BME280;14817;57.104;-2.094;2023-05-17T09:32:24;101642.13;;;18.47;100.00
27334;BME280;14817;57.104;-2.094;2023-05-17T09:34:51;101641.91;;;18.17;100.00
27334;BME280;14817;57.104;-2.094;2023-05-17T09:37:18;101636.97;;;18.61;100.00
27334;BME280;14817;57.104;-2.094;2023-05-17T09:39:46;101647.66;;;18.93;100.00
27334;BME280;14817;57.104;-2.094;2023-05-17T09:42:14;101652.75;;;18.57;100.00
27334;BME280;14817;57.104;-2.094;2023-05-17T09:45:08;101636.47;;;18.17;100.00
27334;BME280;14817;57.104;-2.094;2023-05-17T09:47:35;101640.47;;;18.38;100.00
27334;BME280;14817;57.104;-2.094;2023-05-17T09:50:03;101636.28;;;18.27;100.00
27334;BME280;14817;57.104;-2.094;2023-05-17T09:52:30;101636.09;;;18.37;100.00
27334;BME280;14817;57.104;-2.094;2023-05-17T09:54:59;101637.94;;;18.68;100.00
27334;BME280;14817;57.104;-2.094;2023-05-17T09:57:27;101629.75;;;18.76;100.00
27334;BME280;14817;57.104;-2.094;2023-05-17T09:59:55;101635.06;;;18.30;100.00
27334;BME280;14817;57.104;-2.094;2023-05-17T10:02:27;101634.00;;;18.79;100.00
27334;BME280;14817;57.104;-2.094;2023-05-17T10:04:57;101627.31;;;18.58;100.00
27334;BME280;14817;57.104;-2.094;2023-05-17T10:07:25;101626.25;;;18.67;100.00
27334;BME280;14817;57.104;-2.094;2023-05-17T10:09:53;101624.50;;;18.74;100.00
27334;BME280;14817;57.104;-2.094;2023-05-17T10:12:22;101630.16;;;18.65;100.00
27334;BME280;14817;57.104;-2.094;2023-05-17T10:14:52;101618.16;;;18.20;100.00
27334;BME280;14817;57.104;-2.094;2023-05-17T10:17:21;101623.19;;;17.91;100.00
27334;BME280;14817;57.104;-2.094;2023-05-17T10:19:49;101620.69;;;17.57;100.00
27334;BME280;14817;57.104;-2.094;2023-05-17T10:22:17;101628.50;;;17.52;100.00
27334;BME280;14817;57.104;-2.094;2023-05-17T10:24:50;101626.53;;;18.02;100.00
27334;BME280;14817;57.104;-2.094;2023-05-17T10:27:18;101619.78;;;17.73;100.00
27334;BME280;14817;57.104;-2.094;2023-05-17T10:29:46;101623.53;;;17.88;100.00
27334;BME280;14817;57.104;-2.094;2023-05-17T10:32:18;101617.97;;;17.73;100.00
27334;BME280;14817;57.104;-2.094;2023-05-17T10:34:49;101618.59;;;17.92;100.00
27334;BME280;14817;57.104;-2.094;2023-05-17T10:37:32;101612.25;;;17.35;100.00
27334;BME280;14817;57.104;-2.094;2023-05-17T10:39:59;101613.09;;;18.25;100.00
27334;BME280;14817;57.104;-2.094;2023-05-17T10:42:26;101621.16;;;17.85;100.00
27334;BME280;14817;57.104;-2.094;2023-05-17T10:44:53;101616.31;;;17.56;100.00
27334;BME280;14817;57.104;-2.094;2023-05-17T10:47:20;101611.41;;;17.35;100.00
27334;BME280;14817;57.104;-2.094;2023-05-17T10:49:47;101604.94;;;17.52;100.00
27334;BME280;14817;57.104;-2.094;2023-05-17T10:52:19;101615.78;;;17.20;100.00
27334;BME280;14817;57.104;-2.094;2023-05-17T10:54:48;101615.94;;;16.93;100.00
27334;BME280;14817;57.104;-2.094;2023-05-17T10:57:27;101605.16;;;17.10;100.00
27334;BME280;14817;57.104;-2.094;2023-05-17T11:00:19;101597.88;;;17.35;100.00
27334;BME280;14817;57.104;-2.094;2023-05-17T11:02:47;101601.25;;;17.21;100.00
27334;BME280;14817;57.104;-2.094;2023-05-17T11:05:25;101598.72;;;17.03;100.00
27334;BME280;14817;57.104;-2.094;2023-05-17T11:08:12;101590.59;;;17.35;100.00
27334;BME280;14817;57.104;-2.094;2023-05-17T11:11:12;101591.25;;;17.46;100.00
27334;BME280;14817;57.104;-2.094;2023-05-17T11:13:49;101601.06;;;16.89;100.00
27334;BME280;14817;57.104;-2.094;2023-05-17T11:16:21;101594.78;;;16.81;100.00
27334;BME280;14817;57.104;-2.094;2023-05-17T11:18:53;101588.91;;;17.10;100.00
27334;BME280;14817;57.104;-2.094;2023-05-17T11:21:21;101586.84;;;17.37;100.00
27334;BME280;14817;57.104;-2.094;2023-05-17T11:23:54;101580.25;;;16.98;100.00
27334;BME280;14817;57.104;-2.094;2023-05-17T11:26:32;101579.75;;;17.11;100.00
27334;BME280;14817;57.104;-2.094;2023-05-17T11:29:00;101586.53;;;17.23;100.00
27334;BME280;14817;57.104;-2.094;2023-05-17T11:31:32;101581.09;;;17.31;100.00
27334;BME280;14817;57.104;-2.094;2023-05-17T11:34:04;101589.38;;;16.81;100.00
27334;BME280;14817;57.104;-2.094;2023-05-17T11:36:48;101595.16;;;17.02;100.00
27334;BME280;14817;57.104;-2.094;2023-05-17T11:39:18;101586.84;;;16.96;100.00
27334;BME280;14817;57.104;-2.094;2023-05-17T11:41:51;101575.13;;;16.70;100.00
27334;BME280;14817;57.104;-2.094;2023-05-17T11:44:31;101569.06;;;17.59;100.00
27334;BME280;14817;57.104;-2.094;2023-05-17T11:47:06;101578.31;;;17.72;100.00
27334;BME280;14817;57.104;-2.094;2023-05-17T11:49:37;101575.34;;;17.34;100.00
27334;BME280;14817;57.104;-2.094;2023-05-17T11:52:05;101573.00;;;17.15;100.00
27334;BME280;14817;57.104;-2.094;2023-05-17T11:54:33;101564.34;;;17.44;100.00
27334;BME280;14817;57.104;-2.094;2023-05-17T11:57:01;101558.94;;;17.28;100.00
27334;BME280;14817;57.104;-2.094;2023-05-17T11:59:36;101561.31;;;16.98;100.00
27334;BME280;14817;57.104;-2.094;2023-05-17T12:02:05;101568.75;;;17.37;100.00
27334;BME280;14817;57.104;-2.094;2023-05-17T12:04:34;101558.91;;;17.44;100.00
27334;BME280;14817;57.104;-2.094;2023-05-17T12:07:10;101547.91;;;17.54;100.00
27334;BME280;14817;57.104;-2.094;2023-05-17T12:09:38;101554.31;;;17.53;100.00
27334;BME280;14817;57.104;-2.094;2023-05-17T12:12:06;101550.66;;;17.13;100.00
27334;BME280;14817;57.104;-2.094;2023-05-17T12:14:34;101558.25;;;17.34;100.00
27334;BME280;14817;57.104;-2.094;2023-05-17T12:17:03;101555.41;;;16.86;100.00
27334;BME280;14817;57.104;-2.094;2023-05-17T12:19:31;101555.50;;;16.52;100.00
27334;BME280;14817;57.104;-2.094;2023-05-17T12:22:08;101554.72;;;16.84;100.00
27334;BME280;14817;57.104;-2.094;2023-05-17T12:24:40;101552.31;;;16.65;100.00
27334;BME280;14817;57.104;-2.094;2023-05-17T12:27:08;101552.34;;;16.81;100.00
27334;BME280;14817;57.104;-2.094;2023-05-17T12:29:37;101545.84;;;16.41;100.00
27334;BME280;14817;57.104;-2.094;2023-05-17T12:32:05;101543.34;;;16.56;100.00
27334;BME280;14817;57.104;-2.094;2023-05-17T12:34:33;101546.50;;;16.35;100.00
27334;BME280;14817;57.104;-2.094;2023-05-17T12:37:00;101542.50;;;16.72;100.00
27334;BME280;14817;57.104;-2.094;2023-05-17T12:39:29;101548.06;;;16.46;100.00
27334;BME280;14817;57.104;-2.094;2023-05-17T12:41:57;101545.56;;;16.69;100.00
27334;BME280;14817;57.104;-2.094;2023-05-17T12:44:24;101547.44;;;16.09;100.00
27334;BME280;14817;57.104;-2.094;2023-05-17T12:46:53;101537.34;;;16.20;100.00
27334;BME280;14817;57.104;-2.094;2023-05-17T12:49:21;101541.44;;;16.40;100.00
27334;BME280;14817;57.104;-2.094;2023-05-17T12:51:49;101540.56;;;16.23;100.00
27334;BME280;14817;57.104;-2.094;2023-05-17T12:54:26;101531.69;;;16.72;100.00
27334;BME280;14817;57.104;-2.094;2023-05-17T12:56:56;101534.00;;;16.34;100.00